sensor_id;sensor_type;location;lat;lon;timestamp;temperature;humidity
74540;SHT31;66042;51.090;-115.340;2023-07-24T00:00:14;57.24;7.55
74540;SHT31;66042;51.090;-115.340;2023-07-24T00:02:41;57.18;7.20
74540;SHT31;66042;51.090;-115.340;2023-07-24T00:05:08;56.80;7.37
74540;SHT31;66042;51.090;-115.340;2023-07-24T00:07:36;56.37;7.20
74540;SHT31;66042;51.090;-115.340;2023-07-24T00:10:03;55.48;7.24
74540;SHT31;66042;51.090;-115.340;2023-07-24T00:12:31;54.80;7.58
74540;SHT31;66042;51.090;-115.340;2023-07-24T00:14:58;54.22;7.64
74540;SHT31;66042;51.090;-115.340;2023-07-24T00:17:25;54.36;7.64
74540;SHT31;66042;51.090;-115.340;2023-07-24T00:19:52;54.32;7.65
74540;SHT31;66042;51.090;-115.340;2023-07-24T00:22:19;53.40;7.71
74540;SHT31;66042;51.090;-115.340;2023-07-24T00:24:45;52.53;8.04
74540;SHT31;66042;51.090;-115.340;2023-07-24T00:27:13;52.07;7.76
74540;SHT31;66042;51.090;-115.340;2023-07-24T00:29:40;51.73;7.81
74540;SHT31;66042;51.090;-115.340;2023-07-24T00:32:07;51.16;7.80
74540;SHT31;66042;51.090;-115.340;2023-07-24T00:34:34;50.02;8.21
74540;SHT31;66042;51.090;-115.340;2023-07-24T00:37:01;49.17;8.72
74540;SHT31;66042;51.090;-115.340;2023-07-24T00:39:28;48.94;8.69
74540;SHT31;66042;51.090;-115.340;2023-07-24T00:41:55;48.68;8.69
74540;SHT31;66042;51.090;-115.340;2023-07-24T00:44:22;47.95;8.99
74540;SHT31;66042;51.090;-115.340;2023-07-24T00:46:49;47.19;8.95
74540;SHT31;66042;51.090;-115.340;2023-07-24T00:49:16;46.47;9.21
74540;SHT31;66042;51.090;-115.340;2023-07-24T00:51:44;45.84;9.08
74540;SHT31;66042;51.090;-115.340;2023-07-24T00:54:12;45.17;9.37
74540;SHT31;66042;51.090;-115.340;2023-07-24T00:56:44;44.44;9.73
74540;SHT31;66042;51.090;-115.340;2023-07-24T00:59:12;43.81;9.85
74540;SHT31;66042;51.090;-115.340;2023-07-24T01:01:39;43.03;10.29
74540;SHT31;66042;51.090;-115.340;2023-07-24T01:04:09;42.32;10.35
74540;SHT31;66042;51.090;-115.340;2023-07-24T01:06:37;41.60;10.38
74540;SHT31;66042;51.090;-115.340;2023-07-24T01:09:04;40.93;10.57
74540;SHT31;66042;51.090;-115.340;2023-07-24T01:11:39;40.48;10.85
74540;SHT31;66042;51.090;-115.340;2023-07-24T01:14:21;39.95;11.35
74540;SHT31;66042;51.090;-115.340;2023-07-24T01:16:55;39.59;11.59
74540;SHT31;66042;51.090;-115.340;2023-07-24T01:19:42;39.24;11.63
74540;SHT31;66042;51.090;-115.340;2023-07-24T01:27:51;37.94;12.15
74540;SHT31;66042;51.090;-115.340;2023-07-24T01:30:19;37.64;12.18
74540;SHT31;66042;51.090;-115.340;2023-07-24T01:32:47;37.29;12.64
74540;SHT31;66042;51.090;-115.340;2023-07-24T01:35:14;36.85;13.09
74540;SHT31;66042;51.090;-115.340;2023-07-24T01:37:43;36.66;12.72
74540;SHT31;66042;51.090;-115.340;2023-07-24T01:40:12;36.74;12.92
74540;SHT31;66042;51.090;-115.340;2023-07-24T01:42:40;36.98;12.90
74540;SHT31;66042;51.090;-115.340;2023-07-24T01:45:07;37.25;12.26
74540;SHT31;66042;51.090;-115.340;2023-07-24T01:47:36;37.04;12.75
74540;SHT31;66042;51.090;-115.340;2023-07-24T01:50:04;36.69;13.25
74540;SHT31;66042;51.090;-115.340;2023-07-24T01:52:33;36.39;13.15
74540;SHT31;66042;51.090;-115.340;2023-07-24T01:55:00;36.12;13.52
74540;SHT31;66042;51.090;-115.340;2023-07-24T01:57:27;35.91;14.42
74540;SHT31;66042;51.090;-115.340;2023-07-24T01:59:53;35.63;15.10
74540;SHT31;66042;51.090;-115.340;2023-07-24T02:02:20;35.42;15.08
74540;SHT31;66042;51.090;-115.340;2023-07-24T02:04:47;35.20;14.58
74540;SHT31;66042;51.090;-115.340;2023-07-24T02:07:14;34.91;15.37
74540;SHT31;66042;51.090;-115.340;2023-07-24T02:09:41;34.68;16.27
74540;SHT31;66042;51.090;-115.340;2023-07-24T02:12:08;34.46;16.57
74540;SHT31;66042;51.090;-115.340;2023-07-24T02:14:35;34.19;17.69
74540;SHT31;66042;51.090;-115.340;2023-07-24T02:17:02;33.92;18.56
74540;SHT31;66042;51.090;-115.340;2023-07-24T02:19:29;33.65;18.87
74540;SHT31;66042;51.090;-115.340;2023-07-24T02:21:56;33.41;19.57
74540;SHT31;66042;51.090;-115.340;2023-07-24T02:24:23;33.23;20.52
74540;SHT31;66042;51.090;-115.340;2023-07-24T02:26:50;33.04;22.02
74540;SHT31;66042;51.090;-115.340;2023-07-24T02:29:17;32.83;22.86
74540;SHT31;66042;51.090;-115.340;2023-07-24T02:31:44;32.65;23.51
74540;SHT31;66042;51.090;-115.340;2023-07-24T02:34:11;32.43;24.12
74540;SHT31;66042;51.090;-115.340;2023-07-24T02:36:38;32.25;24.61
74540;SHT31;66042;51.090;-115.340;2023-07-24T02:39:06;32.07;25.25
74540;SHT31;66042;51.090;-115.340;2023-07-24T02:41:33;31.85;25.67
74540;SHT31;66042;51.090;-115.340;2023-07-24T02:44:01;31.67;26.15
74540;SHT31;66042;51.090;-115.340;2023-07-24T02:46:29;31.51;26.50
74540;SHT31;66042;51.090;-115.340;2023-07-24T02:48:56;31.33;26.62
74540;SHT31;66042;51.090;-115.340;2023-07-24T02:51:23;31.18;26.99
74540;SHT31;66042;51.090;-115.340;2023-07-24T02:53:52;30.97;27.52
74540;SHT31;66042;51.090;-115.340;2023-07-24T02:56:20;30.77;27.85
74540;SHT31;66042;51.090;-115.340;2023-07-24T02:58:47;30.59;28.52
74540;SHT31;66042;51.090;-115.340;2023-07-24T03:01:14;30.41;28.97
74540;SHT31;66042;51.090;-115.340;2023-07-24T03:03:41;30.26;29.61
74540;SHT31;66042;51.090;-115.340;2023-07-24T03:06:08;30.11;30.05
74540;SHT31;66042;51.090;-115.340;2023-07-24T03:08:35;29.96;30.38
74540;SHT31;66042;51.090;-115.340;2023-07-24T03:11:04;29.80;30.86
74540;SHT31;66042;51.090;-115.340;2023-07-24T03:13:32;29.66;31.05
74540;SHT31;66042;51.090;-115.340;2023-07-24T03:15:59;29.50;31.39
74540;SHT31;66042;51.090;-115.340;2023-07-24T03:18:26;29.36;31.68
74540;SHT31;66042;51.090;-115.340;2023-07-24T03:20:52;29.22;31.71
74540;SHT31;66042;51.090;-115.340;2023-07-24T03:23:19;29.10;31.98
74540;SHT31;66042;51.090;-115.340;2023-07-24T03:25:47;28.97;32.17
74540;SHT31;66042;51.090;-115.340;2023-07-24T03:28:14;28.84;32.26
74540;SHT31;66042;51.090;-115.340;2023-07-24T03:30:41;28.73;32.83
74540;SHT31;66042;51.090;-115.340;2023-07-24T03:33:08;28.59;33.02
74540;SHT31;66042;51.090;-115.340;2023-07-24T03:35:38;28.46;32.86
74540;SHT31;66042;51.090;-115.340;2023-07-24T03:38:05;28.34;33.20
74540;SHT31;66042;51.090;-115.340;2023-07-24T03:40:32;28.21;33.18
74540;SHT31;66042;51.090;-115.340;2023-07-24T03:42:58;28.04;34.08
74540;SHT31;66042;51.090;-115.340;2023-07-24T03:45:25;27.83;34.13
74540;SHT31;66042;51.090;-115.340;2023-07-24T03:47:52;27.70;34.15
74540;SHT31;66042;51.090;-115.340;2023-07-24T03:50:19;27.60;34.37
74540;SHT31;66042;51.090;-115.340;2023-07-24T03:52:46;27.50;34.61
74540;SHT31;66042;51.090;-115.340;2023-07-24T03:55:13;27.39;34.66
74540;SHT31;66042;51.090;-115.340;2023-07-24T03:57:40;27.29;34.69
74540;SHT31;66042;51.090;-115.340;2023-07-24T04:00:07;27.17;35.07
74540;SHT31;66042;51.090;-115.340;2023-07-24T04:02:35;27.05;35.30
74540;SHT31;66042;51.090;-115.340;2023-07-24T04:05:02;26.95;35.68
74540;SHT31;66042;51.090;-115.340;2023-07-24T04:07:30;26.84;36.29
74540;SHT31;66042;51.090;-115.340;2023-07-24T04:09:56;26.72;36.41
74540;SHT31;66042;51.090;-115.340;2023-07-24T04:12:24;26.64;36.59
74540;SHT31;66042;51.090;-115.340;2023-07-24T04:14:51;26.53;36.65
74540;SHT31;66042;51.090;-115.340;2023-07-24T04:17:18;26.45;36.78
74540;SHT31;66042;51.090;-115.340;2023-07-24T04:19:44;26.38;36.83
74540;SHT31;66042;51.090;-115.340;2023-07-24T04:22:11;26.28;37.51
74540;SHT31;66042;51.090;-115.340;2023-07-24T04:24:38;26.16;37.51
74540;SHT31;66042;51.090;-115.340;2023-07-24T04:27:05;26.07;37.66
74540;SHT31;66042;51.090;-115.340;2023-07-24T04:29:32;25.98;37.77
74540;SHT31;66042;51.090;-115.340;2023-07-24T04:31:59;25.90;38.07
74540;SHT31;66042;51.090;-115.340;2023-07-24T04:34:26;25.81;38.48
74540;SHT31;66042;51.090;-115.340;2023-07-24T04:36:53;25.69;38.62
74540;SHT31;66042;51.090;-115.340;2023-07-24T04:39:20;25.59;38.74
74540;SHT31;66042;51.090;-115.340;2023-07-24T04:41:47;25.51;39.14
74540;SHT31;66042;51.090;-115.340;2023-07-24T04:44:13;25.44;39.42
74540;SHT31;66042;51.090;-115.340;2023-07-24T04:46:41;25.38;39.58
74540;SHT31;66042;51.090;-115.340;2023-07-24T04:49:07;25.32;39.58
74540;SHT31;66042;51.090;-115.340;2023-07-24T04:51:35;25.26;39.91
74540;SHT31;66042;51.090;-115.340;2023-07-24T04:54:01;25.18;40.10
74540;SHT31;66042;51.090;-115.340;2023-07-24T04:56:28;25.09;40.44
74540;SHT31;66042;51.090;-115.340;2023-07-24T04:58:55;24.98;40.36
74540;SHT31;66042;51.090;-115.340;2023-07-24T05:01:22;24.92;40.09
74540;SHT31;66042;51.090;-115.340;2023-07-24T05:03:48;24.86;40.48
74540;SHT31;66042;51.090;-115.340;2023-07-24T05:06:15;24.75;40.95
74540;SHT31;66042;51.090;-115.340;2023-07-24T05:08:42;24.61;40.91
74540;SHT31;66042;51.090;-115.340;2023-07-24T05:11:09;24.51;40.98
74540;SHT31;66042;51.090;-115.340;2023-07-24T05:13:36;24.44;40.58
74540;SHT31;66042;51.090;-115.340;2023-07-24T05:16:03;24.37;40.83
74540;SHT31;66042;51.090;-115.340;2023-07-24T05:18:30;24.25;41.20
74540;SHT31;66042;51.090;-115.340;2023-07-24T05:20:57;24.18;40.95
74540;SHT31;66042;51.090;-115.340;2023-07-24T05:23:24;24.11;41.09
74540;SHT31;66042;51.090;-115.340;2023-07-24T05:25:58;24.03;41.16
74540;SHT31;66042;51.090;-115.340;2023-07-24T05:28:27;23.94;41.08
74540;SHT31;66042;51.090;-115.340;2023-07-24T05:30:55;23.86;41.36
74540;SHT31;66042;51.090;-115.340;2023-07-24T05:33:30;23.75;41.75
74540;SHT31;66042;51.090;-115.340;2023-07-24T05:35:58;23.66;41.59
74540;SHT31;66042;51.090;-115.340;2023-07-24T05:38:29;23.57;41.87
74540;SHT31;66042;51.090;-115.340;2023-07-24T05:41:00;23.46;41.75
74540;SHT31;66042;51.090;-115.340;2023-07-24T05:43:29;23.37;41.90
74540;SHT31;66042;51.090;-115.340;2023-07-24T05:45:58;23.28;42.17
74540;SHT31;66042;51.090;-115.340;2023-07-24T05:48:25;23.16;42.57
74540;SHT31;66042;51.090;-115.340;2023-07-24T05:50:52;23.05;42.51
74540;SHT31;66042;51.090;-115.340;2023-07-24T05:53:19;23.00;42.52
74540;SHT31;66042;51.090;-115.340;2023-07-24T05:55:46;22.87;43.25
74540;SHT31;66042;51.090;-115.340;2023-07-24T05:58:21;22.63;43.68
74540;SHT31;66042;51.090;-115.340;2023-07-24T06:00:47;22.54;43.70
74540;SHT31;66042;51.090;-115.340;2023-07-24T06:03:14;22.50;43.71
74540;SHT31;66042;51.090;-115.340;2023-07-24T06:05:41;22.47;43.74
74540;SHT31;66042;51.090;-115.340;2023-07-24T06:08:08;22.42;44.03
74540;SHT31;66042;51.090;-115.340;2023-07-24T06:10:36;22.27;44.36
74540;SHT31;66042;51.090;-115.340;2023-07-24T06:13:03;22.20;44.22
74540;SHT31;66042;51.090;-115.340;2023-07-24T06:15:30;22.16;44.44
74540;SHT31;66042;51.090;-115.340;2023-07-24T06:17:57;22.07;44.57
74540;SHT31;66042;51.090;-115.340;2023-07-24T06:20:23;22.02;44.53
74540;SHT31;66042;51.090;-115.340;2023-07-24T06:22:50;21.88;44.98
74540;SHT31;66042;51.090;-115.340;2023-07-24T06:25:18;21.79;44.82
74540;SHT31;66042;51.090;-115.340;2023-07-24T06:27:45;21.77;44.67
74540;SHT31;66042;51.090;-115.340;2023-07-24T06:30:12;21.71;44.98
74540;SHT31;66042;51.090;-115.340;2023-07-24T06:32:39;21.65;44.98
74540;SHT31;66042;51.090;-115.340;2023-07-24T06:35:06;21.58;45.14
74540;SHT31;66042;51.090;-115.340;2023-07-24T06:37:33;21.53;44.80
74540;SHT31;66042;51.090;-115.340;2023-07-24T06:40:01;21.42;45.32
74540;SHT31;66042;51.090;-115.340;2023-07-24T06:42:28;21.35;45.36
74540;SHT31;66042;51.090;-115.340;2023-07-24T06:44:55;21.30;45.31
74540;SHT31;66042;51.090;-115.340;2023-07-24T06:47:22;21.26;45.42
74540;SHT31;66042;51.090;-115.340;2023-07-24T06:49:49;21.17;45.57
74540;SHT31;66042;51.090;-115.340;2023-07-24T06:52:16;21.12;45.59
74540;SHT31;66042;51.090;-115.340;2023-07-24T06:54:43;20.98;46.20
74540;SHT31;66042;51.090;-115.340;2023-07-24T06:57:10;20.77;46.49
74540;SHT31;66042;51.090;-115.340;2023-07-24T06:59:37;20.73;46.45
74540;SHT31;66042;51.090;-115.340;2023-07-24T07:02:04;20.64;47.22
74540;SHT31;66042;51.090;-115.340;2023-07-24T07:04:31;20.51;47.11
74540;SHT31;66042;51.090;-115.340;2023-07-24T07:06:58;20.49;47.18
74540;SHT31;66042;51.090;-115.340;2023-07-24T07:09:26;20.43;47.73
74540;SHT31;66042;51.090;-115.340;2023-07-24T07:11:53;20.38;47.46
74540;SHT31;66042;51.090;-115.340;2023-07-24T07:14:20;20.36;47.42
74540;SHT31;66042;51.090;-115.340;2023-07-24T07:16:46;20.33;47.38
74540;SHT31;66042;51.090;-115.340;2023-07-24T07:19:13;20.28;47.62
74540;SHT31;66042;51.090;-115.340;2023-07-24T07:21:40;20.26;47.62
74540;SHT31;66042;51.090;-115.340;2023-07-24T07:24:07;20.23;47.57
74540;SHT31;66042;51.090;-115.340;2023-07-24T07:26:34;20.14;47.98
74540;SHT31;66042;51.090;-115.340;2023-07-24T07:29:01;20.00;48.00
74540;SHT31;66042;51.090;-115.340;2023-07-24T07:31:28;19.97;47.88
74540;SHT31;66042;51.090;-115.340;2023-07-24T07:33:55;19.90;47.67
74540;SHT31;66042;51.090;-115.340;2023-07-24T07:36:22;19.83;47.72
74540;SHT31;66042;51.090;-115.340;2023-07-24T07:38:48;19.75;47.59
74540;SHT31;66042;51.090;-115.340;2023-07-24T07:41:15;19.70;47.44
74540;SHT31;66042;51.090;-115.340;2023-07-24T07:43:42;19.67;47.32
74540;SHT31;66042;51.090;-115.340;2023-07-24T07:46:09;19.64;47.24
74540;SHT31;66042;51.090;-115.340;2023-07-24T07:48:37;19.59;47.35
74540;SHT31;66042;51.090;-115.340;2023-07-24T07:51:04;19.42;47.59
74540;SHT31;66042;51.090;-115.340;2023-07-24T07:53:31;19.34;47.54
74540;SHT31;66042;51.090;-115.340;2023-07-24T07:55:58;19.34;47.55
74540;SHT31;66042;51.090;-115.340;2023-07-24T07:58:26;19.31;47.25
74540;SHT31;66042;51.090;-115.340;2023-07-24T08:00:53;19.24;47.41
74540;SHT31;66042;51.090;-115.340;2023-07-24T08:03:20;19.12;47.41
74540;SHT31;66042;51.090;-115.340;2023-07-24T08:05:47;19.07;47.17
74540;SHT31;66042;51.090;-115.340;2023-07-24T08:08:14;19.05;46.90
74540;SHT31;66042;51.090;-115.340;2023-07-24T08:10:41;18.92;46.99
74540;SHT31;66042;51.090;-115.340;2023-07-24T08:13:08;18.78;47.15
74540;SHT31;66042;51.090;-115.340;2023-07-24T08:15:35;18.79;47.14
74540;SHT31;66042;51.090;-115.340;2023-07-24T08:18:03;18.80;47.04
74540;SHT31;66042;51.090;-115.340;2023-07-24T08:20:31;18.71;47.29
74540;SHT31;66042;51.090;-115.340;2023-07-24T08:23:01;18.69;47.14
74540;SHT31;66042;51.090;-115.340;2023-07-24T08:25:29;18.69;46.91
74540;SHT31;66042;51.090;-115.340;2023-07-24T08:27:56;18.68;46.80
74540;SHT31;66042;51.090;-115.340;2023-07-24T08:30:23;18.65;46.48
74540;SHT31;66042;51.090;-115.340;2023-07-24T08:32:50;18.61;46.73
74540;SHT31;66042;51.090;-115.340;2023-07-24T08:35:18;18.57;46.79
74540;SHT31;66042;51.090;-115.340;2023-07-24T08:37:45;18.52;46.74
74540;SHT31;66042;51.090;-115.340;2023-07-24T08:40:12;18.48;46.61
74540;SHT31;66042;51.090;-115.340;2023-07-24T08:42:42;18.45;46.72
74540;SHT31;66042;51.090;-115.340;2023-07-24T08:45:12;18.30;47.06
74540;SHT31;66042;51.090;-115.340;2023-07-24T08:47:41;18.28;47.00
74540;SHT31;66042;51.090;-115.340;2023-07-24T08:50:10;18.19;46.76
74540;SHT31;66042;51.090;-115.340;2023-07-24T08:52:40;18.17;46.94
74540;SHT31;66042;51.090;-115.340;2023-07-24T08:55:08;18.05;47.37
74540;SHT31;66042;51.090;-115.340;2023-07-24T08:57:36;17.98;47.64
74540;SHT31;66042;51.090;-115.340;2023-07-24T09:00:03;17.98;47.73
74540;SHT31;66042;51.090;-115.340;2023-07-24T09:02:34;17.95;47.64
74540;SHT31;66042;51.090;-115.340;2023-07-24T09:05:02;17.90;47.89
74540;SHT31;66042;51.090;-115.340;2023-07-24T09:07:31;17.88;47.98
74540;SHT31;66042;51.090;-115.340;2023-07-24T09:09:58;17.83;47.93
74540;SHT31;66042;51.090;-115.340;2023-07-24T09:12:25;17.75;47.93
74540;SHT31;66042;51.090;-115.340;2023-07-24T09:15:04;17.70;48.09
74540;SHT31;66042;51.090;-115.340;2023-07-24T09:17:32;17.63;48.37
74540;SHT31;66042;51.090;-115.340;2023-07-24T09:19:59;17.60;48.43
74540;SHT31;66042;51.090;-115.340;2023-07-24T09:22:27;17.60;48.35
74540;SHT31;66042;51.090;-115.340;2023-07-24T09:24:54;17.52;48.23
74540;SHT31;66042;51.090;-115.340;2023-07-24T09:27:27;17.44;48.56
74540;SHT31;66042;51.090;-115.340;2023-07-24T09:29:55;17.32;48.87
74540;SHT31;66042;51.090;-115.340;2023-07-24T09:32:22;17.28;48.75
74540;SHT31;66042;51.090;-115.340;2023-07-24T09:34:51;17.19;48.67
74540;SHT31;66042;51.090;-115.340;2023-07-24T09:39:56;17.07;48.87
74540;SHT31;66042;51.090;-115.340;2023-07-24T09:42:28;17.06;48.76
74540;SHT31;66042;51.090;-115.340;2023-07-24T09:44:56;17.02;48.56
74540;SHT31;66042;51.090;-115.340;2023-07-24T09:47:24;16.99;48.74
74540;SHT31;66042;51.090;-115.340;2023-07-24T09:49:51;16.96;48.82
74540;SHT31;66042;51.090;-115.340;2023-07-24T09:52:19;16.91;48.30
74540;SHT31;66042;51.090;-115.340;2023-07-24T09:54:49;16.88;47.99
74540;SHT31;66042;51.090;-115.340;2023-07-24T09:57:39;16.87;47.63
74540;SHT31;66042;51.090;-115.340;2023-07-24T10:00:06;16.87;47.56
74540;SHT31;66042;51.090;-115.340;2023-07-24T10:02:34;16.89;47.47
74540;SHT31;66042;51.090;-115.340;2023-07-24T10:05:02;16.84;47.58
74540;SHT31;66042;51.090;-115.340;2023-07-24T10:07:31;16.80;47.21
74540;SHT31;66042;51.090;-115.340;2023-07-24T10:09:58;16.76;47.23
74540;SHT31;66042;51.090;-115.340;2023-07-24T10:12:26;16.76;47.35
74540;SHT31;66042;51.090;-115.340;2023-07-24T10:14:55;16.71;47.34
74540;SHT31;66042;51.090;-115.340;2023-07-24T10:17:40;16.65;47.43
74540;SHT31;66042;51.090;-115.340;2023-07-24T10:20:08;16.61;47.39
74540;SHT31;66042;51.090;-115.340;2023-07-24T10:22:40;16.58;47.55
74540;SHT31;66042;51.090;-115.340;2023-07-24T10:25:08;16.59;47.51
74540;SHT31;66042;51.090;-115.340;2023-07-24T10:27:39;16.57;47.23
74540;SHT31;66042;51.090;-115.340;2023-07-24T10:30:11;16.48;47.52
74540;SHT31;66042;51.090;-115.340;2023-07-24T10:32:46;16.45;47.61
74540;SHT31;66042;51.090;-115.340;2023-07-24T10:35:15;16.43;47.66
74540;SHT31;66042;51.090;-115.340;2023-07-24T10:37:43;16.40;47.71
74540;SHT31;66042;51.090;-115.340;2023-07-24T10:40:18;16.34;47.61
74540;SHT31;66042;51.090;-115.340;2023-07-24T10:42:58;16.29;47.90
74540;SHT31;66042;51.090;-115.340;2023-07-24T10:46:05;16.22;48.16
74540;SHT31;66042;51.090;-115.340;2023-07-24T10:48:25;16.11;48.20
74540;SHT31;66042;51.090;-115.340;2023-07-24T10:50:52;15.95;48.56
74540;SHT31;66042;51.090;-115.340;2023-07-24T10:53:19;15.98;48.54
74540;SHT31;66042;51.090;-115.340;2023-07-24T10:55:48;15.94;48.49
74540;SHT31;66042;51.090;-115.340;2023-07-24T10:58:17;15.97;48.44
74540;SHT31;66042;51.090;-115.340;2023-07-24T11:00:44;15.92;48.54
74540;SHT31;66042;51.090;-115.340;2023-07-24T11:03:13;15.87;48.88
74540;SHT31;66042;51.090;-115.340;2023-07-24T11:05:44;15.72;49.02
74540;SHT31;66042;51.090;-115.340;2023-07-24T11:08:13;15.70;48.83
74540;SHT31;66042;51.090;-115.340;2023-07-24T11:10:46;15.69;48.81
74540;SHT31;66042;51.090;-115.340;2023-07-24T11:13:15;15.69;48.75
74540;SHT31;66042;51.090;-115.340;2023-07-24T11:15:43;15.57;48.98
74540;SHT31;66042;51.090;-115.340;2023-07-24T11:18:11;15.52;49.13
74540;SHT31;66042;51.090;-115.340;2023-07-24T11:20:39;15.54;49.03
74540;SHT31;66042;51.090;-115.340;2023-07-24T11:23:15;15.52;49.10
74540;SHT31;66042;51.090;-115.340;2023-07-24T11:25:42;15.47;49.19
74540;SHT31;66042;51.090;-115.340;2023-07-24T11:28:10;15.40;49.20
74540;SHT31;66042;51.090;-115.340;2023-07-24T11:30:39;15.30;49.24
74540;SHT31;66042;51.090;-115.340;2023-07-24T11:33:09;15.20;49.57
74540;SHT31;66042;51.090;-115.340;2023-07-24T11:35:39;15.14;49.79
74540;SHT31;66042;51.090;-115.340;2023-07-24T11:38:08;15.16;49.91
74540;SHT31;66042;51.090;-115.340;2023-07-24T11:40:36;15.16;49.78
74540;SHT31;66042;51.090;-115.340;2023-07-24T11:43:16;15.14;49.81
74540;SHT31;66042;51.090;-115.340;2023-07-24T11:45:47;14.94;50.31
74540;SHT31;66042;51.090;-115.340;2023-07-24T11:48:23;14.91;50.43
74540;SHT31;66042;51.090;-115.340;2023-07-24T11:50:52;14.93;50.35
74540;SHT31;66042;51.090;-115.340;2023-07-24T11:53:22;14.90;50.51
74540;SHT31;66042;51.090;-115.340;2023-07-24T11:55:51;14.84;50.59
74540;SHT31;66042;51.090;-115.340;2023-07-24T11:58:21;14.81;50.58
74540;SHT31;66042;51.090;-115.340;2023-07-24T12:00:51;14.76;50.88
74540;SHT31;66042;51.090;-115.340;2023-07-24T12:05:51;14.73;50.97
74540;SHT31;66042;51.090;-115.340;2023-07-24T12:08:19;14.65;51.32
74540;SHT31;66042;51.090;-115.340;2023-07-24T12:10:56;14.54;51.49
74540;SHT31;66042;51.090;-115.340;2023-07-24T12:13:23;14.51;51.63
74540;SHT31;66042;51.090;-115.340;2023-07-24T12:15:50;14.43;51.70
74540;SHT31;66042;51.090;-115.340;2023-07-24T12:18:17;14.46;51.44
74540;SHT31;66042;51.090;-115.340;2023-07-24T12:20:44;14.46;51.60
74540;SHT31;66042;51.090;-115.340;2023-07-24T12:23:12;14.42;51.75
74540;SHT31;66042;51.090;-115.340;2023-07-24T12:25:39;14.43;51.75
74540;SHT31;66042;51.090;-115.340;2023-07-24T12:28:07;14.44;51.85
74540;SHT31;66042;51.090;-115.340;2023-07-24T12:30:34;14.38;51.97
74540;SHT31;66042;51.090;-115.340;2023-07-24T12:33:01;14.35;51.96
74540;SHT31;66042;51.090;-115.340;2023-07-24T12:35:28;14.35;52.21
74540;SHT31;66042;51.090;-115.340;2023-07-24T12:37:55;14.33;52.25
74540;SHT31;66042;51.090;-115.340;2023-07-24T12:40:22;14.31;52.31
74540;SHT31;66042;51.090;-115.340;2023-07-24T12:42:49;14.28;52.35
74540;SHT31;66042;51.090;-115.340;2023-07-24T12:45:16;14.29;52.50
74540;SHT31;66042;51.090;-115.340;2023-07-24T12:47:43;14.28;52.78
74540;SHT31;66042;51.090;-115.340;2023-07-24T12:50:10;14.27;52.94
74540;SHT31;66042;51.090;-115.340;2023-07-24T12:52:37;14.24;53.00
74540;SHT31;66042;51.090;-115.340;2023-07-24T12:55:04;14.08;53.52
74540;SHT31;66042;51.090;-115.340;2023-07-24T12:57:32;13.92;53.91
74540;SHT31;66042;51.090;-115.340;2023-07-24T12:59:59;13.92;53.98
74540;SHT31;66042;51.090;-115.340;2023-07-24T13:02:25;13.97;53.84
74540;SHT31;66042;51.090;-115.340;2023-07-24T13:04:53;14.02;53.87
74540;SHT31;66042;51.090;-115.340;2023-07-24T13:07:19;13.98;53.97
74540;SHT31;66042;51.090;-115.340;2023-07-24T13:09:46;13.96;54.12
74540;SHT31;66042;51.090;-115.340;2023-07-24T13:12:13;13.99;54.21
74540;SHT31;66042;51.090;-115.340;2023-07-24T13:14:41;13.97;54.23
74540;SHT31;66042;51.090;-115.340;2023-07-24T13:17:08;13.99;54.11
74540;SHT31;66042;51.090;-115.340;2023-07-24T13:19:35;14.01;54.16
74540;SHT31;66042;51.090;-115.340;2023-07-24T13:22:02;14.02;54.11
74540;SHT31;66042;51.090;-115.340;2023-07-24T13:24:29;14.04;54.01
74540;SHT31;66042;51.090;-115.340;2023-07-24T13:26:57;14.05;54.21
74540;SHT31;66042;51.090;-115.340;2023-07-24T13:29:24;14.02;54.61
74540;SHT31;66042;51.090;-115.340;2023-07-24T13:31:51;13.99;54.87
74540;SHT31;66042;51.090;-115.340;2023-07-24T13:34:18;13.94;55.08
74540;SHT31;66042;51.090;-115.340;2023-07-24T13:36:46;13.89;55.22
74540;SHT31;66042;51.090;-115.340;2023-07-24T13:39:13;13.90;55.20
74540;SHT31;66042;51.090;-115.340;2023-07-24T13:41:39;13.93;54.97
74540;SHT31;66042;51.090;-115.340;2023-07-24T13:44:06;13.93;55.09
74540;SHT31;66042;51.090;-115.340;2023-07-24T13:46:33;13.94;54.90
74540;SHT31;66042;51.090;-115.340;2023-07-24T13:49:00;13.98;54.78
74540;SHT31;66042;51.090;-115.340;2023-07-24T13:51:27;14.01;54.92
74540;SHT31;66042;51.090;-115.340;2023-07-24T13:53:54;14.03;54.72
74540;SHT31;66042;51.090;-115.340;2023-07-24T13:56:21;14.05;54.74
74540;SHT31;66042;51.090;-115.340;2023-07-24T13:58:49;14.05;54.87
74540;SHT31;66042;51.090;-115.340;2023-07-24T14:01:16;14.06;54.78
74540;SHT31;66042;51.090;-115.340;2023-07-24T14:03:42;14.10;54.59
74540;SHT31;66042;51.090;-115.340;2023-07-24T14:06:09;14.12;54.46
74540;SHT31;66042;51.090;-115.340;2023-07-24T14:08:36;14.16;54.21
74540;SHT31;66042;51.090;-115.340;2023-07-24T14:11:03;14.19;53.84
74540;SHT31;66042;51.090;-115.340;2023-07-24T14:13:30;14.22;53.82
74540;SHT31;66042;51.090;-115.340;2023-07-24T14:15:57;14.26;53.94
74540;SHT31;66042;51.090;-115.340;2023-07-24T14:18:24;14.25;54.35
74540;SHT31;66042;51.090;-115.340;2023-07-24T14:20:51;14.26;54.13
74540;SHT31;66042;51.090;-115.340;2023-07-24T14:23:20;14.31;53.99
74540;SHT31;66042;51.090;-115.340;2023-07-24T14:25:47;14.36;54.00
74540;SHT31;66042;51.090;-115.340;2023-07-24T14:28:14;14.42;54.07
74540;SHT31;66042;51.090;-115.340;2023-07-24T14:30:41;14.48;53.82
74540;SHT31;66042;51.090;-115.340;2023-07-24T14:33:08;14.53;53.51
74540;SHT31;66042;51.090;-115.340;2023-07-24T14:35:35;14.59;53.37
74540;SHT31;66042;51.090;-115.340;2023-07-24T14:38:02;14.63;53.35
74540;SHT31;66042;51.090;-115.340;2023-07-24T14:40:29;14.68;53.21
74540;SHT31;66042;51.090;-115.340;2023-07-24T14:42:55;14.72;53.06
74540;SHT31;66042;51.090;-115.340;2023-07-24T14:45:22;14.77;52.95
74540;SHT31;66042;51.090;-115.340;2023-07-24T14:47:50;14.82;52.72
74540;SHT31;66042;51.090;-115.340;2023-07-24T14:50:17;14.88;52.45
74540;SHT31;66042;51.090;-115.340;2023-07-24T14:52:44;14.94;52.37
74540;SHT31;66042;51.090;-115.340;2023-07-24T14:55:12;15.00;52.20
74540;SHT31;66042;51.090;-115.340;2023-07-24T14:57:40;15.05;51.96
74540;SHT31;66042;51.090;-115.340;2023-07-24T15:00:08;15.08;51.73
74540;SHT31;66042;51.090;-115.340;2023-07-24T15:02:35;15.12;51.64